Impacts TAF Board
For situational awareness. Not to be used for flight planning purposes.
IDs:

KGUC - Gunnison Arpt, CO, US

Issued at 1738 UTC 21 May 2022
Updated at 2113 UTC 21 May 2022
Potential Impact None Slight Moderate High
Time2056Z 21/22Z 21/23Z 22/00Z 22/01Z 22/02Z 22/03Z 22/04Z 22/05Z 22/06Z 22/07Z 22/08Z 22/09Z 22/10Z>>
Type OBS PRVL PRVL PRVL PRVL PRVL PRVL PRVL PRVL PRVL PRVL PRVL PRVL PRVL
VIS 10 >6 >6 >6 >6 >6 >6 >6 >6 >6 >6 >6 >6 >6
CIG -- -- -- -- 80 80 80 80 80 80 80 80 80 80
Cover SCT SCT SCT SCT BKN BKN BKN BKN BKN BKN BKN BKN BKN BKN
FltCat VFR VFR VFR VFR VFR VFR VFR VFR VFR VFR VFR VFR VFR VFR
WX -- -- -- -- -- -- -- -- -- -- -- -- -- --
WDir 260 260 260 260 290 290 290 290 290 50 50 50 50 50
WSpd 9 14 14 14 13 13 13 13 13 7 7 7 7 7
WGst 19 23 23 23 -- -- -- -- -- -- -- -- -- --
WSHgt -- -- -- -- -- -- -- -- -- -- -- -- -- --
WSDir -- -- -- -- -- -- -- -- -- -- -- -- -- --
WSSpd -- -- -- -- -- -- -- -- -- -- -- -- -- --
Raw TAF
KGUC 211738Z 2118/2218 26014G23KT P6SM SCT022
  FM220100 29013KT P6SM SCT070 BKN080
  FM220600 05007KT P6SM SCT035 BKN080
  FM221200 09005KT P6SM SCT030 BKN060


Raw METAR
KGUC 212056Z AUTO 26009G19KT 10SM FEW055 SCT075 10/M03 A3010 RMK AO2 SLP171 60000 T01001033 56008
KGUC 211956Z AUTO 25012G18KT 10SM FEW029 BKN055 BKN070 09/M02 A3011 RMK AO2 RAB35E51 SLP175 P0000 T00891022
KGUC 211856Z AUTO 15005KT 10SM CLR 07/M01 A3011 RMK AO2 SLP185 T00671006

METAR Board
Radar Display
Forecast Discussion
For situational awareness. Not to be used for flight planning purposes.